sensor_id;sensor_type;location;lat;lon;timestamp;pressure;altitude;pressure_sealevel;temperature
28905;BMP280;60848;53.884;11.446;2024-03-17T00:01:05;101819.31;;;7.04
28905;BMP280;60848;53.884;11.446;2024-03-17T00:03:32;101814.44;;;7.02
28905;BMP280;60848;53.884;11.446;2024-03-17T00:06:02;101821.63;;;7.05
28905;BMP280;60848;53.884;11.446;2024-03-17T00:08:28;101822.56;;;7.01
28905;BMP280;60848;53.884;11.446;2024-03-17T00:10:56;101823.75;;;7.03
28905;BMP280;60848;53.884;11.446;2024-03-17T00:13:22;101827.00;;;7.00
28905;BMP280;60848;53.884;11.446;2024-03-17T00:15:50;101827.13;;;6.95
28905;BMP280;60848;53.884;11.446;2024-03-17T00:18:17;101833.25;;;6.91
28905;BMP280;60848;53.884;11.446;2024-03-17T00:20:46;101829.44;;;6.88
28905;BMP280;60848;53.884;11.446;2024-03-17T00:23:12;101836.91;;;6.89
28905;BMP280;60848;53.884;11.446;2024-03-17T00:25:40;101847.44;;;6.93
28905;BMP280;60848;53.884;11.446;2024-03-17T00:28:06;101845.47;;;6.90
28905;BMP280;60848;53.884;11.446;2024-03-17T00:30:34;101843.63;;;6.91
28905;BMP280;60848;53.884;11.446;2024-03-17T00:33:00;101847.44;;;6.93
28905;BMP280;60848;53.884;11.446;2024-03-17T00:35:28;101848.06;;;6.90
28905;BMP280;60848;53.884;11.446;2024-03-17T00:37:56;101859.09;;;6.96
28905;BMP280;60848;53.884;11.446;2024-03-17T00:40:24;101854.97;;;6.95
28905;BMP280;60848;53.884;11.446;2024-03-17T00:42:50;101867.50;;;6.93
28905;BMP280;60848;53.884;11.446;2024-03-17T00:45:20;101864.00;;;6.89
28905;BMP280;60848;53.884;11.446;2024-03-17T00:47:49;101862.91;;;6.89
28905;BMP280;60848;53.884;11.446;2024-03-17T00:50:16;101857.69;;;6.89
28905;BMP280;60848;53.884;11.446;2024-03-17T00:52:43;101865.97;;;6.92
28905;BMP280;60848;53.884;11.446;2024-03-17T00:55:12;101856.63;;;6.82
28905;BMP280;60848;53.884;11.446;2024-03-17T00:57:40;101874.22;;;6.76
28905;BMP280;60848;53.884;11.446;2024-03-17T01:00:08;101879.69;;;6.75
28905;BMP280;60848;53.884;11.446;2024-03-17T01:02:40;101874.81;;;6.73
28905;BMP280;60848;53.884;11.446;2024-03-17T01:05:07;101872.34;;;6.68
28905;BMP280;60848;53.884;11.446;2024-03-17T01:07:34;101883.03;;;6.67
28905;BMP280;60848;53.884;11.446;2024-03-17T01:10:02;101883.63;;;6.64
28905;BMP280;60848;53.884;11.446;2024-03-17T01:12:32;101885.34;;;6.68
28905;BMP280;60848;53.884;11.446;2024-03-17T01:15:00;101883.47;;;6.69
28905;BMP280;60848;53.884;11.446;2024-03-17T01:17:27;101890.09;;;6.75
28905;BMP280;60848;53.884;11.446;2024-03-17T01:19:54;101884.28;;;6.78
28905;BMP280;60848;53.884;11.446;2024-03-17T01:22:22;101885.06;;;6.78
28905;BMP280;60848;53.884;11.446;2024-03-17T01:24:48;101889.47;;;6.78
28905;BMP280;60848;53.884;11.446;2024-03-17T01:27:17;101880.31;;;6.80
28905;BMP280;60848;53.884;11.446;2024-03-17T01:29:45;101883.09;;;6.84
28905;BMP280;60848;53.884;11.446;2024-03-17T01:32:13;101885.53;;;6.80
28905;BMP280;60848;53.884;11.446;2024-03-17T01:34:39;101886.09;;;6.77
28905;BMP280;60848;53.884;11.446;2024-03-17T01:37:08;101892.22;;;6.73
28905;BMP280;60848;53.884;11.446;2024-03-17T01:39:34;101893.78;;;6.74
28905;BMP280;60848;53.884;11.446;2024-03-17T01:42:04;101893.00;;;6.73
28905;BMP280;60848;53.884;11.446;2024-03-17T01:44:30;101899.13;;;6.77
28905;BMP280;60848;53.884;11.446;2024-03-17T01:46:59;101901.13;;;6.80
28905;BMP280;60848;53.884;11.446;2024-03-17T01:49:26;101900.34;;;6.80
28905;BMP280;60848;53.884;11.446;2024-03-17T01:51:55;101895.44;;;6.70
28905;BMP280;60848;53.884;11.446;2024-03-17T01:54:21;101900.63;;;6.70
28905;BMP280;60848;53.884;11.446;2024-03-17T01:56:49;101894.50;;;6.66
28905;BMP280;60848;53.884;11.446;2024-03-17T01:59:16;101905.06;;;6.69
28905;BMP280;60848;53.884;11.446;2024-03-17T02:01:43;101898.34;;;6.68
28905;BMP280;60848;53.884;11.446;2024-03-17T02:04:11;101893.41;;;6.67
28905;BMP280;60848;53.884;11.446;2024-03-17T02:06:38;101897.69;;;6.63
28905;BMP280;60848;53.884;11.446;2024-03-17T02:09:05;101895.72;;;6.60
28905;BMP280;60848;53.884;11.446;2024-03-17T02:11:35;101891.09;;;6.57
28905;BMP280;60848;53.884;11.446;2024-03-17T02:14:02;101889.56;;;6.56
28905;BMP280;60848;53.884;11.446;2024-03-17T02:16:29;101880.84;;;6.52
28905;BMP280;60848;53.884;11.446;2024-03-17T02:18:56;101885.25;;;6.51
28905;BMP280;60848;53.884;11.446;2024-03-17T02:21:26;101891.38;;;6.47
28905;BMP280;60848;53.884;11.446;2024-03-17T02:23:55;101887.25;;;6.46
28905;BMP280;60848;53.884;11.446;2024-03-17T02:26:22;101893.78;;;6.43
28905;BMP280;60848;53.884;11.446;2024-03-17T02:28:49;101884.19;;;6.44
28905;BMP280;60848;53.884;11.446;2024-03-17T02:31:16;101889.66;;;6.42
28905;BMP280;60848;53.884;11.446;2024-03-17T02:33:44;101888.72;;;6.38
28905;BMP280;60848;53.884;11.446;2024-03-17T02:36:12;101879.41;;;6.37
28905;BMP280;60848;53.884;11.446;2024-03-17T02:38:41;101886.25;;;6.33
28905;BMP280;60848;53.884;11.446;2024-03-17T02:41:27;101882.25;;;6.27
28905;BMP280;60848;53.884;11.446;2024-03-17T02:43:55;101888.50;;;6.26
28905;BMP280;60848;53.884;11.446;2024-03-17T02:46:23;101888.94;;;6.20
28905;BMP280;60848;53.884;11.446;2024-03-17T02:48:52;101889.22;;;6.18
28905;BMP280;60848;53.884;11.446;2024-03-17T02:51:21;101883.47;;;6.21
28905;BMP280;60848;53.884;11.446;2024-03-17T02:53:50;101892.13;;;6.17
28905;BMP280;60848;53.884;11.446;2024-03-17T02:56:20;101901.72;;;6.08
28905;BMP280;60848;53.884;11.446;2024-03-17T02:58:49;101901.81;;;6.03
28905;BMP280;60848;53.884;11.446;2024-03-17T03:01:17;101906.06;;;5.99
28905;BMP280;60848;53.884;11.446;2024-03-17T03:03:45;101907.88;;;5.98
28905;BMP280;60848;53.884;11.446;2024-03-17T03:06:13;101906.06;;;5.99
28905;BMP280;60848;53.884;11.446;2024-03-17T03:08:42;101912.03;;;5.99
28905;BMP280;60848;53.884;11.446;2024-03-17T03:11:12;101912.03;;;5.99
28905;BMP280;60848;53.884;11.446;2024-03-17T03:13:40;101911.16;;;6.04
28905;BMP280;60848;53.884;11.446;2024-03-17T03:16:11;101911.56;;;5.97
28905;BMP280;60848;53.884;11.446;2024-03-17T03:18:40;101918.09;;;5.95
28905;BMP280;60848;53.884;11.446;2024-03-17T03:21:08;101917.63;;;5.93
28905;BMP280;60848;53.884;11.446;2024-03-17T03:23:37;101915.03;;;5.93
28905;BMP280;60848;53.884;11.446;2024-03-17T03:26:05;101918.41;;;5.93
28905;BMP280;60848;53.884;11.446;2024-03-17T03:28:35;101929.09;;;5.92
28905;BMP280;60848;53.884;11.446;2024-03-17T03:31:02;101929.09;;;5.92
28905;BMP280;60848;53.884;11.446;2024-03-17T03:33:31;101934.56;;;5.90
28905;BMP280;60848;53.884;11.446;2024-03-17T03:35:59;101931.00;;;5.86
28905;BMP280;60848;53.884;11.446;2024-03-17T03:38:26;101941.97;;;5.83
28905;BMP280;60848;53.884;11.446;2024-03-17T03:40:54;101946.56;;;5.86
28905;BMP280;60848;53.884;11.446;2024-03-17T03:43:23;101937.75;;;5.87
28905;BMP280;60848;53.884;11.446;2024-03-17T03:45:52;101934.84;;;5.89
28905;BMP280;60848;53.884;11.446;2024-03-17T03:48:20;101950.13;;;5.90
28905;BMP280;60848;53.884;11.446;2024-03-17T03:50:49;101945.41;;;5.92
28905;BMP280;60848;53.884;11.446;2024-03-17T03:53:16;101941.28;;;5.91
28905;BMP280;60848;53.884;11.446;2024-03-17T03:55:44;101952.34;;;5.97
28905;BMP280;60848;53.884;11.446;2024-03-17T03:58:11;101954.16;;;5.96
28905;BMP280;60848;53.884;11.446;2024-03-17T04:00:39;101946.66;;;5.95
28905;BMP280;60848;53.884;11.446;2024-03-17T04:03:08;101955.22;;;5.95
28905;BMP280;60848;53.884;11.446;2024-03-17T04:05:36;101952.47;;;5.92
28905;BMP280;60848;53.884;11.446;2024-03-17T04:08:05;101955.06;;;5.92
28905;BMP280;60848;53.884;11.446;2024-03-17T04:10:35;101959.16;;;5.93
28905;BMP280;60848;53.884;11.446;2024-03-17T04:13:03;101956.88;;;5.91
28905;BMP280;60848;53.884;11.446;2024-03-17T04:15:30;101964.66;;;5.91
28905;BMP280;60848;53.884;11.446;2024-03-17T04:17:58;101961.88;;;5.88
28905;BMP280;60848;53.884;11.446;2024-03-17T04:20:25;101954.66;;;5.85
28905;BMP280;60848;53.884;11.446;2024-03-17T04:22:53;101971.59;;;5.82
28905;BMP280;60848;53.884;11.446;2024-03-17T04:25:22;101968.28;;;5.82
28905;BMP280;60848;53.884;11.446;2024-03-17T04:27:49;101970.94;;;5.77
28905;BMP280;60848;53.884;11.446;2024-03-17T04:30:19;101959.72;;;5.67
28905;BMP280;60848;53.884;11.446;2024-03-17T04:32:50;101969.25;;;5.58
28905;BMP280;60848;53.884;11.446;2024-03-17T04:35:18;101961.53;;;5.53
28905;BMP280;60848;53.884;11.446;2024-03-17T04:37:46;101972.25;;;5.52
28905;BMP280;60848;53.884;11.446;2024-03-17T04:40:14;101971.28;;;5.48
28905;BMP280;60848;53.884;11.446;2024-03-17T04:42:43;101972.63;;;5.45
28905;BMP280;60848;53.884;11.446;2024-03-17T04:45:10;101967.72;;;5.44
28905;BMP280;60848;53.884;11.446;2024-03-17T04:47:38;101967.25;;;5.42
28905;BMP280;60848;53.884;11.446;2024-03-17T04:50:06;101963.63;;;5.43
28905;BMP280;60848;53.884;11.446;2024-03-17T04:52:33;101971.09;;;5.44
28905;BMP280;60848;53.884;11.446;2024-03-17T04:55:01;101970.31;;;5.44
28905;BMP280;60848;53.884;11.446;2024-03-17T04:57:30;101978.09;;;5.44
28905;BMP280;60848;53.884;11.446;2024-03-17T04:59:58;101980.22;;;5.42
28905;BMP280;60848;53.884;11.446;2024-03-17T05:02:28;101985.59;;;5.32
28905;BMP280;60848;53.884;11.446;2024-03-17T05:04:58;101976.38;;;5.26
28905;BMP280;60848;53.884;11.446;2024-03-17T05:07:26;101983.69;;;5.24
28905;BMP280;60848;53.884;11.446;2024-03-17T05:09:54;101983.13;;;5.27
28905;BMP280;60848;53.884;11.446;2024-03-17T05:12:21;101990.41;;;5.25
28905;BMP280;60848;53.884;11.446;2024-03-17T05:14:48;101986.56;;;5.22
28905;BMP280;60848;53.884;11.446;2024-03-17T05:17:17;101995.69;;;5.20
28905;BMP280;60848;53.884;11.446;2024-03-17T05:19:45;101998.09;;;5.16
28905;BMP280;60848;53.884;11.446;2024-03-17T05:22:13;101998.41;;;5.15
28905;BMP280;60848;53.884;11.446;2024-03-17T05:24:40;102004.91;;;5.12
28905;BMP280;60848;53.884;11.446;2024-03-17T05:27:08;101999.72;;;5.12
28905;BMP280;60848;53.884;11.446;2024-03-17T05:29:35;102005.84;;;5.03
28905;BMP280;60848;53.884;11.446;2024-03-17T05:32:04;102008.25;;;4.99
28905;BMP280;60848;53.884;11.446;2024-03-17T05:34:33;102000.66;;;5.03
28905;BMP280;60848;53.884;11.446;2024-03-17T05:37:00;102003.72;;;5.05
28905;BMP280;60848;53.884;11.446;2024-03-17T05:39:28;102006.31;;;5.05
28905;BMP280;60848;53.884;11.446;2024-03-17T05:41:55;102010.66;;;4.96
28905;BMP280;60848;53.884;11.446;2024-03-17T05:44:22;102009.97;;;4.90
28905;BMP280;60848;53.884;11.446;2024-03-17T05:46:50;102022.81;;;4.95
28905;BMP280;60848;53.884;11.446;2024-03-17T05:49:19;102028.50;;;4.97
28905;BMP280;60848;53.884;11.446;2024-03-17T05:51:51;102026.97;;;4.96
28905;BMP280;60848;53.884;11.446;2024-03-17T05:54:22;102024.63;;;4.95
28905;BMP280;60848;53.884;11.446;2024-03-17T05:56:51;102038.47;;;4.90
28905;BMP280;60848;53.884;11.446;2024-03-17T05:59:19;102040.38;;;4.85
28905;BMP280;60848;53.884;11.446;2024-03-17T06:01:46;102040.38;;;4.85
28905;BMP280;60848;53.884;11.446;2024-03-17T06:04:14;102042.59;;;4.91
28905;BMP280;60848;53.884;11.446;2024-03-17T06:06:43;102044.34;;;4.96
28905;BMP280;60848;53.884;11.446;2024-03-17T06:09:12;102051.00;;;5.02
28905;BMP280;60848;53.884;11.446;2024-03-17T06:11:43;102053.69;;;5.10
28905;BMP280;60848;53.884;11.446;2024-03-17T06:14:13;102060.81;;;5.18
28905;BMP280;60848;53.884;11.446;2024-03-17T06:16:40;102062.53;;;5.23
28905;BMP280;60848;53.884;11.446;2024-03-17T06:19:09;102063.50;;;5.27
28905;BMP280;60848;53.884;11.446;2024-03-17T06:21:37;102068.59;;;5.32
28905;BMP280;60848;53.884;11.446;2024-03-17T06:24:07;102073.25;;;5.35
28905;BMP280;60848;53.884;11.446;2024-03-17T06:26:37;102076.47;;;5.40
28905;BMP280;60848;53.884;11.446;2024-03-17T06:29:04;102074.09;;;5.44
28905;BMP280;60848;53.884;11.446;2024-03-17T06:31:32;102071.69;;;5.47
28905;BMP280;60848;53.884;11.446;2024-03-17T06:33:59;102079.84;;;5.54
28905;BMP280;60848;53.884;11.446;2024-03-17T06:36:26;102080.03;;;5.58
28905;BMP280;60848;53.884;11.446;2024-03-17T06:38:54;102073.72;;;5.50
28905;BMP280;60848;53.884;11.446;2024-03-17T06:41:21;102078.63;;;5.52
28905;BMP280;60848;53.884;11.446;2024-03-17T06:43:50;102083.63;;;5.48
28905;BMP280;60848;53.884;11.446;2024-03-17T06:46:18;102084.66;;;5.47
28905;BMP280;60848;53.884;11.446;2024-03-17T06:48:45;102082.63;;;5.44
28905;BMP280;60848;53.884;11.446;2024-03-17T06:51:13;102091.41;;;5.48
28905;BMP280;60848;53.884;11.446;2024-03-17T06:53:40;102085.44;;;5.48
28905;BMP280;60848;53.884;11.446;2024-03-17T06:56:08;102087.84;;;5.44
28905;BMP280;60848;53.884;11.446;2024-03-17T06:58:35;102092.72;;;5.46
28905;BMP280;60848;53.884;11.446;2024-03-17T07:01:05;102089.84;;;5.47
28905;BMP280;60848;53.884;11.446;2024-03-17T07:03:33;102099.19;;;5.48
28905;BMP280;60848;53.884;11.446;2024-03-17T07:06:01;102099.19;;;5.48
28905;BMP280;60848;53.884;11.446;2024-03-17T07:08:30;102107.31;;;5.55
28905;BMP280;60848;53.884;11.446;2024-03-17T07:10:58;102101.09;;;5.56
28905;BMP280;60848;53.884;11.446;2024-03-17T07:13:28;102104.47;;;5.57
28905;BMP280;60848;53.884;11.446;2024-03-17T07:15:56;102111.66;;;5.60
28905;BMP280;60848;53.884;11.446;2024-03-17T07:18:26;102110.34;;;5.62
28905;BMP280;60848;53.884;11.446;2024-03-17T07:20:56;102110.03;;;5.64
28905;BMP280;60848;53.884;11.446;2024-03-17T07:23:24;102117.72;;;5.69
28905;BMP280;60848;53.884;11.446;2024-03-17T07:25:52;102125.50;;;5.69
28905;BMP280;60848;53.884;11.446;2024-03-17T07:28:23;102130.69;;;5.69
28905;BMP280;60848;53.884;11.446;2024-03-17T07:30:53;102132.22;;;5.70
28905;BMP280;60848;53.884;11.446;2024-03-17T07:33:20;102124.75;;;5.68
28905;BMP280;60848;53.884;11.446;2024-03-17T07:35:50;102130.50;;;5.65
28905;BMP280;60848;53.884;11.446;2024-03-17T07:38:20;102142.06;;;5.73
28905;BMP280;60848;53.884;11.446;2024-03-17T07:40:56;102148.78;;;5.74
28905;BMP280;60848;53.884;11.446;2024-03-17T07:43:25;102146.09;;;5.79
28905;BMP280;60848;53.884;11.446;2024-03-17T07:46:00;102149.84;;;5.87
28905;BMP280;60848;53.884;11.446;2024-03-17T07:48:28;102142.81;;;5.87
28905;BMP280;60848;53.884;11.446;2024-03-17T07:50:58;102148.50;;;5.89
28905;BMP280;60848;53.884;11.446;2024-03-17T07:53:26;102150.44;;;5.97
28905;BMP280;60848;53.884;11.446;2024-03-17T07:55:58;102152.16;;;6.02
28905;BMP280;60848;53.884;11.446;2024-03-17T07:58:26;102148.94;;;6.18
28905;BMP280;60848;53.884;11.446;2024-03-17T08:00:59;102152.38;;;6.41
28905;BMP280;60848;53.884;11.446;2024-03-17T08:03:28;102147.75;;;6.73
28905;BMP280;60848;53.884;11.446;2024-03-17T08:06:02;102144.56;;;6.99
28905;BMP280;60848;53.884;11.446;2024-03-17T08:08:29;102151.69;;;7.15
28905;BMP280;60848;53.884;11.446;2024-03-17T08:10:57;102159.03;;;7.44
28905;BMP280;60848;53.884;11.446;2024-03-17T08:13:24;102157.00;;;7.71
28905;BMP280;60848;53.884;11.446;2024-03-17T08:15:57;102152.13;;;7.78
28905;BMP280;60848;53.884;11.446;2024-03-17T08:18:27;102160.09;;;7.82
28905;BMP280;60848;53.884;11.446;2024-03-17T08:20:54;102155.34;;;7.84
28905;BMP280;60848;53.884;11.446;2024-03-17T08:23:26;102150.97;;;8.01
28905;BMP280;60848;53.884;11.446;2024-03-17T08:25:56;102152.19;;;8.21
28905;BMP280;60848;53.884;11.446;2024-03-17T08:28:24;102147.00;;;8.30
28905;BMP280;60848;53.884;11.446;2024-03-17T08:30:52;102144.09;;;8.48
28905;BMP280;60848;53.884;11.446;2024-03-17T08:33:21;102151.59;;;8.67
28905;BMP280;60848;53.884;11.446;2024-03-17T08:35:55;102155.06;;;8.79
28905;BMP280;60848;53.884;11.446;2024-03-17T08:38:28;102155.22;;;8.91
28905;BMP280;60848;53.884;11.446;2024-03-17T08:40:56;102153.22;;;8.88
28905;BMP280;60848;53.884;11.446;2024-03-17T08:43:24;102156.72;;;9.09
28905;BMP280;60848;53.884;11.446;2024-03-17T08:45:57;102166.28;;;9.34
28905;BMP280;60848;53.884;11.446;2024-03-17T08:48:27;102160.66;;;9.62
28905;BMP280;60848;53.884;11.446;2024-03-17T08:50:57;102158.66;;;9.88
28905;BMP280;60848;53.884;11.446;2024-03-17T08:53:25;102152.91;;;10.15
28905;BMP280;60848;53.884;11.446;2024-03-17T08:55:54;102150.25;;;10.35
28905;BMP280;60848;53.884;11.446;2024-03-17T08:58:22;102155.03;;;10.54
28905;BMP280;60848;53.884;11.446;2024-03-17T09:00:49;102150.97;;;10.77
28905;BMP280;60848;53.884;11.446;2024-03-17T09:03:20;102156.88;;;10.98
28905;BMP280;60848;53.884;11.446;2024-03-17T09:05:48;102159.94;;;11.12
28905;BMP280;60848;53.884;11.446;2024-03-17T09:08:16;102156.25;;;11.25
28905;BMP280;60848;53.884;11.446;2024-03-17T09:10:46;102165.94;;;11.37
28905;BMP280;60848;53.884;11.446;2024-03-17T09:13:19;102167.50;;;11.38
28905;BMP280;60848;53.884;11.446;2024-03-17T09:15:50;102161.59;;;11.41
28905;BMP280;60848;53.884;11.446;2024-03-17T09:18:18;102170.84;;;11.38
28905;BMP280;60848;53.884;11.446;2024-03-17T09:20:45;102174.91;;;11.36
28905;BMP280;60848;53.884;11.446;2024-03-17T09:23:13;102172.59;;;11.46
28905;BMP280;60848;53.884;11.446;2024-03-17T09:25:41;102173.59;;;11.54
28905;BMP280;60848;53.884;11.446;2024-03-17T09:28:08;102170.72;;;11.59
28905;BMP280;60848;53.884;11.446;2024-03-17T09:30:39;102166.25;;;11.71
28905;BMP280;60848;53.884;11.446;2024-03-17T09:33:07;102169.69;;;11.87
28905;BMP280;60848;53.884;11.446;2024-03-17T09:35:35;102161.69;;;11.96
28905;BMP280;60848;53.884;11.446;2024-03-17T09:38:03;102171.09;;;11.97
28905;BMP280;60848;53.884;11.446;2024-03-17T09:40:30;102163.88;;;11.94
28905;BMP280;60848;53.884;11.446;2024-03-17T09:42:58;102170.50;;;11.76
28905;BMP280;60848;53.884;11.446;2024-03-17T09:45:25;102174.75;;;11.80
28905;BMP280;60848;53.884;11.446;2024-03-17T09:47:56;102169.41;;;11.77
28905;BMP280;60848;53.884;11.446;2024-03-17T09:50:23;102168.75;;;11.68
28905;BMP280;60848;53.884;11.446;2024-03-17T09:52:52;102162.56;;;11.60
28905;BMP280;60848;53.884;11.446;2024-03-17T09:55:19;102160.91;;;11.68
28905;BMP280;60848;53.884;11.446;2024-03-17T09:57:48;102170.56;;;11.79
28905;BMP280;60848;53.884;11.446;2024-03-17T10:00:16;102170.47;;;11.88
28905;BMP280;60848;53.884;11.446;2024-03-17T10:02:44;102172.28;;;11.99
28905;BMP280;60848;53.884;11.446;2024-03-17T10:05:19;102169.28;;;12.13
28905;BMP280;60848;53.884;11.446;2024-03-17T10:07:48;102175.88;;;12.07
28905;BMP280;60848;53.884;11.446;2024-03-17T10:10:20;102170.72;;;12.10
28905;BMP280;60848;53.884;11.446;2024-03-17T10:12:49;102177.16;;;12.13
28905;BMP280;60848;53.884;11.446;2024-03-17T10:15:17;102173.97;;;12.19
28905;BMP280;60848;53.884;11.446;2024-03-17T10:17:46;102177.56;;;12.27
28905;BMP280;60848;53.884;11.446;2024-03-17T10:20:16;102177.50;;;12.39
28905;BMP280;60848;53.884;11.446;2024-03-17T10:23:02;102184.63;;;12.54
28905;BMP280;60848;53.884;11.446;2024-03-17T10:25:32;102182.84;;;12.58
28905;BMP280;60848;53.884;11.446;2024-03-17T10:28:01;102181.56;;;12.52
28905;BMP280;60848;53.884;11.446;2024-03-17T10:30:29;102179.28;;;12.51
28905;BMP280;60848;53.884;11.446;2024-03-17T10:32:58;102185.03;;;12.56
28905;BMP280;60848;53.884;11.446;2024-03-17T10:35:27;102187.78;;;12.75
28905;BMP280;60848;53.884;11.446;2024-03-17T10:37:58;102197.66;;;12.94
28905;BMP280;60848;53.884;11.446;2024-03-17T10:40:28;102206.69;;;13.12
28905;BMP280;60848;53.884;11.446;2024-03-17T10:42:57;102202.28;;;13.16
28905;BMP280;60848;53.884;11.446;2024-03-17T10:45:25;102202.28;;;13.16
28905;BMP280;60848;53.884;11.446;2024-03-17T10:47:55;102200.84;;;13.18
28905;BMP280;60848;53.884;11.446;2024-03-17T10:50:23;102204.28;;;13.22
28905;BMP280;60848;53.884;11.446;2024-03-17T10:52:50;102195.16;;;13.32
28905;BMP280;60848;53.884;11.446;2024-03-17T10:55:23;102199.03;;;13.38
28905;BMP280;60848;53.884;11.446;2024-03-17T10:57:53;102198.22;;;13.53
28905;BMP280;60848;53.884;11.446;2024-03-17T11:00:22;102196.84;;;13.59
28905;BMP280;60848;53.884;11.446;2024-03-17T11:02:52;102207.19;;;13.67
28905;BMP280;60848;53.884;11.446;2024-03-17T11:05:22;102204.72;;;13.74
28905;BMP280;60848;53.884;11.446;2024-03-17T11:07:51;102196.41;;;13.91
28905;BMP280;60848;53.884;11.446;2024-03-17T11:10:21;102202.13;;;13.97
28905;BMP280;60848;53.884;11.446;2024-03-17T11:12:51;102198.00;;;13.96
28905;BMP280;60848;53.884;11.446;2024-03-17T11:15:39;102197.22;;;14.15
28905;BMP280;60848;53.884;11.446;2024-03-17T11:18:40;102200.63;;;14.38
28905;BMP280;60848;53.884;11.446;2024-03-17T11:21:18;102207.97;;;14.48
28905;BMP280;60848;53.884;11.446;2024-03-17T11:23:58;102208.16;;;14.58
28905;BMP280;60848;53.884;11.446;2024-03-17T11:26:33;102196.56;;;14.63
28905;BMP280;60848;53.884;11.446;2024-03-17T11:29:02;102197.75;;;14.65
28905;BMP280;60848;53.884;11.446;2024-03-17T11:31:40;102195.47;;;14.64
28905;BMP280;60848;53.884;11.446;2024-03-17T11:34:29;102197.63;;;14.58
28905;BMP280;60848;53.884;11.446;2024-03-17T11:36:57;102205.34;;;14.48
28905;BMP280;60848;53.884;11.446;2024-03-17T11:39:49;102206.19;;;14.33
28905;BMP280;60848;53.884;11.446;2024-03-17T11:42:19;102200.59;;;14.34
28905;BMP280;60848;53.884;11.446;2024-03-17T11:45:05;102199.97;;;14.22
28905;BMP280;60848;53.884;11.446;2024-03-17T11:47:40;102206.00;;;14.22
28905;BMP280;60848;53.884;11.446;2024-03-17T11:50:10;102201.06;;;14.17
28905;BMP280;60848;53.884;11.446;2024-03-17T11:52:37;102197.22;;;14.15
28905;BMP280;60848;53.884;11.446;2024-03-17T11:55:17;102200.63;;;14.15
28905;BMP280;60848;53.884;11.446;2024-03-17T11:57:44;102202.97;;;14.20
28905;BMP280;60848;53.884;11.446;2024-03-17T12:00:23;102200.72;;;14.19
28905;BMP280;60848;53.884;11.446;2024-03-17T12:02:50;102206.06;;;14.26
28905;BMP280;60848;53.884;11.446;2024-03-17T12:05:18;102210.03;;;14.35
28905;BMP280;60848;53.884;11.446;2024-03-17T12:07:47;102206.50;;;14.50
28905;BMP280;60848;53.884;11.446;2024-03-17T12:10:16;102212.72;;;14.61
28905;BMP280;60848;53.884;11.446;2024-03-17T12:12:47;102207.53;;;14.65
28905;BMP280;60848;53.884;11.446;2024-03-17T12:15:16;102212.19;;;14.75
28905;BMP280;60848;53.884;11.446;2024-03-17T12:17:45;102209.38;;;14.87
28905;BMP280;60848;53.884;11.446;2024-03-17T12:20:19;102193.31;;;14.95
28905;BMP280;60848;53.884;11.446;2024-03-17T12:22:47;102188.97;;;15.06
28905;BMP280;60848;53.884;11.446;2024-03-17T12:25:17;102199.25;;;15.15
28905;BMP280;60848;53.884;11.446;2024-03-17T12:27:44;102194.41;;;15.17
28905;BMP280;60848;53.884;11.446;2024-03-17T12:30:12;102202.41;;;15.24
28905;BMP280;60848;53.884;11.446;2024-03-17T12:32:38;102194.59;;;15.31
28905;BMP280;60848;53.884;11.446;2024-03-17T12:35:14;102193.59;;;15.39
28905;BMP280;60848;53.884;11.446;2024-03-17T12:37:43;102191.94;;;15.31
28905;BMP280;60848;53.884;11.446;2024-03-17T12:40:21;102184.47;;;15.33
28905;BMP280;60848;53.884;11.446;2024-03-17T12:42:48;102180.31;;;15.32
28905;BMP280;60848;53.884;11.446;2024-03-17T12:45:20;102178.50;;;15.39
28905;BMP280;60848;53.884;11.446;2024-03-17T12:47:50;102179.81;;;15.52
28905;BMP280;60848;53.884;11.446;2024-03-17T12:50:20;102174.34;;;15.68
28905;BMP280;60848;53.884;11.446;2024-03-17T12:52:53;102179.16;;;15.92
28905;BMP280;60848;53.884;11.446;2024-03-17T12:55:21;102183.28;;;16.30
28905;BMP280;60848;53.884;11.446;2024-03-17T12:58:07;102174.88;;;16.64
28905;BMP280;60848;53.884;11.446;2024-03-17T13:00:59;102186.72;;;16.84
28905;BMP280;60848;53.884;11.446;2024-03-17T13:03:28;102176.28;;;17.05
28905;BMP280;60848;53.884;11.446;2024-03-17T13:05:59;102186.63;;;17.35
28905;BMP280;60848;53.884;11.446;2024-03-17T13:08:28;102187.44;;;17.56
28905;BMP280;60848;53.884;11.446;2024-03-17T13:10:59;102177.31;;;17.83
28905;BMP280;60848;53.884;11.446;2024-03-17T13:13:29;102179.22;;;18.03
28905;BMP280;60848;53.884;11.446;2024-03-17T13:15:57;102178.09;;;18.08
28905;BMP280;60848;53.884;11.446;2024-03-17T13:18:25;102182.28;;;18.23
28905;BMP280;60848;53.884;11.446;2024-03-17T13:20:53;102181.84;;;18.45
28905;BMP280;60848;53.884;11.446;2024-03-17T13:23:25;102172.03;;;18.56
28905;BMP280;60848;53.884;11.446;2024-03-17T13:25:52;102179.19;;;18.52
28905;BMP280;60848;53.884;11.446;2024-03-17T13:28:20;102171.25;;;18.63
28905;BMP280;60848;53.884;11.446;2024-03-17T13:30:50;102169.66;;;18.90
28905;BMP280;60848;53.884;11.446;2024-03-17T13:33:17;102167.00;;;18.94
28905;BMP280;60848;53.884;11.446;2024-03-17T13:35:44;102160.66;;;18.74
28905;BMP280;60848;53.884;11.446;2024-03-17T13:38:17;102166.69;;;18.78
28905;BMP280;60848;53.884;11.446;2024-03-17T13:40:46;102160.63;;;18.70
28905;BMP280;60848;53.884;11.446;2024-03-17T13:43:13;102162.59;;;18.17
28905;BMP280;60848;53.884;11.446;2024-03-17T13:45:44;102164.00;;;17.48
28905;BMP280;60848;53.884;11.446;2024-03-17T13:48:13;102160.25;;;16.77
28905;BMP280;60848;53.884;11.446;2024-03-17T13:50:41;102152.91;;;16.09
28905;BMP280;60848;53.884;11.446;2024-03-17T13:53:10;102150.75;;;15.49
28905;BMP280;60848;53.884;11.446;2024-03-17T13:55:38;102157.72;;;15.05
28905;BMP280;60848;53.884;11.446;2024-03-17T13:58:07;102158.56;;;14.60
28905;BMP280;60848;53.884;11.446;2024-03-17T14:00:34;102165.56;;;14.30
28905;BMP280;60848;53.884;11.446;2024-03-17T14:03:05;102155.63;;;14.01